Barren Island, NY

2:05 AM EDT on March 23, 2017 (GMT -0400)
Rockaway - WeatherMan Ken | | Change Station

Elev 7 ft 40.58 °N, 73.84 °W | Updated 8 seconds ago

Clear
Clear
25.1 °F
Feels Like 14 °F
N
12.0
Wind Variable Wind from WNW

Today
High -- | Low -- °F
--% Chance of Precip.
Yesterday
High -- | Low -- °F
Precip. -- in
Pressure 30.48 in
Visibility 10.0 miles
Clouds Clear
Windchill 14 °F
Dew Point 11 °F
Humidity 55%
Rainfall 0.00 in
Snow Depth Not available.
6:53 AM 7:11 PM
Waning Crescent, 26% visible
METAR KJFK 230551Z 33014KT 10SM CLR M04/M18 A3048 RMK AO2 SLP321 T10441178 11011 21044 51015
Pressure 30.48 in
Visibility 10.0 miles
Clouds Clear
Windchill 14 °F
Dew Point 11 °F
Humidity 55%
Rainfall 0.00 in
Snow Depth Not available.
6:53 AM 7:11 PM
Waning Crescent, 26% visible
METAR KJFK 230551Z 33014KT 10SM CLR M04/M18 A3048 RMK AO2 SLP321 T10441178 11011 21044 51015

Get Severe Weather Alerts

Thanks for signing up!

Be on the lookout for a verification email in your inbox.

You'll start receiving the daily forecast at 8 AM.

×

10-Day Weather Forecast

Almanac

Astronomy

Mar. 23, 2017 Rise Set
Actual Time
Civil Twilight
Nautical Twilight
Astronomical Twilight
Moon
Length of Visible Light
Length of Day
Tomorrow will be .
, % of the Moon is Illuminated

Today's Extremes

State Highs State Lows

Community

WunderPhotos

Upload Photos

1,962,540 photos uploaded!

WunderBlog® & News

Nearby

Air Quality

  Air Quality AQ Index Pollutant
Not available.

Snow Depth

Station Depth Elevation

Earthquake Activity

City Distance Mag. Time & Date
Minimum magnitude displayed is 2.5.

Earthquake Activity

City Distance Mag. Time & Date
Minimum magnitude displayed is 2.5.

Coastal Water Temperatures

Place Temperature

Stations

Nearby Weather Stations

Station Location Temp. Windchill Dew Point Humidity Wind Precip. Elev Updated Type
                   

Watches & Warnings

There are currently no watches in effect.